Time;durP1;ratioP1;P1;durP2;ratioP2;P2;SDS_P1;SDS_P2;PMS_P1;PMS_P2;Temp;Humidity;BMP_temperature;BMP_pressure;BME280_temperature;BME280_humidity;BME280_pressure;Samples;Min_cycle;Max_cycle;Signal;HPM_P1;HPM_P2
2022/08/04 00:00:09;;;;;;;7.18;2.75;;;;;;;34.18;36.70;101365.59;5096969;28;20024;-76
2022/08/04 00:02:50;;;;;;;3.58;2.63;;;;;;;34.42;35.84;101363.06;5096055;28;20024;-76
2022/08/04 00:05:40;;;;;;;5.47;3.08;;;;;;;34.57;35.77;101371.47;5096766;28;20037;-76
2022/08/04 00:08:17;;;;;;;6.20;3.05;;;;;;;34.39;36.12;101363.41;5096830;28;20066;-76
2022/08/04 00:10:53;;;;;;;7.70;3.45;;;;;;;34.79;35.37;101358.38;5095404;28;20111;-77
2022/08/04 00:13:24;;;;;;;9.60;2.70;;;;;;;34.47;35.67;101359.88;5096857;28;20031;-76
2022/08/04 00:15:56;;;;;;;7.97;3.47;;;;;;;34.54;35.85;101366.38;5096086;28;20148;-76
2022/08/04 00:18:26;;;;;;;5.15;2.95;;;;;;;34.65;35.31;101357.09;5114895;28;20026;-76
2022/08/04 00:20:58;;;;;;;5.10;3.08;;;;;;;34.48;35.59;101361.59;5114545;28;20023;-76
2022/08/04 00:23:25;;;;;;;7.38;3.80;;;;;;;34.47;35.89;101354.44;5095611;28;20020;-76
2022/08/04 00:25:52;;;;;;;6.82;3.60;;;;;;;34.30;35.99;101353.50;5096370;28;20035;-76
2022/08/04 00:28:20;;;;;;;5.30;4.05;;;;;;;34.70;35.50;101351.19;5114772;28;20024;-76
2022/08/04 00:30:46;;;;;;;9.10;3.75;;;;;;;34.47;35.68;101360.75;5095689;28;20028;-76
2022/08/04 00:33:18;;;;;;;7.93;3.78;;;;;;;34.43;35.43;101353.06;5114598;28;20024;-76
2022/08/04 00:35:44;;;;;;;8.27;4.35;;;;;;;34.78;34.58;101340.38;5095921;28;20107;-77
2022/08/04 00:38:12;;;;;;;13.02;4.30;;;;;;;34.63;35.01;101342.84;5095582;28;20072;-76
2022/08/04 00:40:47;;;;;;;7.53;4.20;;;;;;;34.34;35.21;101349.47;5096291;28;20026;-76
2022/08/04 00:43:32;;;;;;;7.78;5.20;;;;;;;33.70;36.30;101346.00;5114528;28;20079;-76
2022/08/04 00:46:13;;;;;;;8.00;4.38;;;;;;;34.25;35.31;101340.41;5095586;28;20020;-75
2022/08/04 00:48:57;;;;;;;9.35;4.28;;;;;;;34.29;35.41;101344.53;5096259;28;20070;-77
2022/08/04 00:51:40;;;;;;;7.72;4.47;;;;;;;34.18;35.62;101350.16;5095143;28;20031;-77
2022/08/04 00:54:37;;;;;;;8.10;3.85;;;;;;;34.74;34.67;101339.84;5096034;28;20110;-76
2022/08/04 00:57:16;;;;;;;11.95;4.75;;;;;;;34.34;35.58;101345.91;5095723;28;20544;-76
2022/08/04 01:00:11;;;;;;;6.70;4.18;;;;;;;34.45;35.30;101342.91;5095143;28;20024;-76
2022/08/04 01:03:12;;;;;;;8.30;4.28;;;;;;;34.46;35.23;101344.63;5096481;28;20051;-76
2022/08/04 01:05:41;;;;;;;6.05;3.83;;;;;;;34.31;35.62;101337.06;5095029;28;20024;-76
2022/08/04 01:08:33;;;;;;;7.32;4.30;;;;;;;34.27;35.09;101332.94;5095529;28;20035;-77
2022/08/04 01:11:07;;;;;;;7.50;4.00;;;;;;;34.02;36.22;101333.75;5095749;28;20027;-76
2022/08/04 01:13:59;;;;;;;7.57;4.03;;;;;;;34.19;35.55;101329.31;5095195;28;20036;-76
2022/08/04 01:16:25;;;;;;;4.85;3.58;;;;;;;34.59;34.95;101315.16;5095501;28;20522;-76
2022/08/04 01:19:23;;;;;;;8.43;3.80;;;;;;;34.72;34.54;101322.00;5113696;28;20475;-75
2022/08/04 01:22:01;;;;;;;7.22;4.15;;;;;;;33.76;36.52;101319.13;5050936;28;20066;-76
2022/08/04 01:25:01;;;;;;;7.15;3.80;;;;;;;34.40;35.55;101326.25;5095157;28;20184;-76
2022/08/04 01:27:50;;;;;;;6.00;4.18;;;;;;;34.19;35.72;101322.03;5112870;28;20107;-76
2022/08/04 01:30:16;;;;;;;7.03;4.03;;;;;;;33.82;36.75;101333.94;5095525;28;20024;-76
2022/08/04 01:32:55;;;;;;;6.28;3.78;;;;;;;34.19;35.92;101326.63;5113435;28;20060;-76
2022/08/04 01:35:25;;;;;;;10.05;4.05;;;;;;;34.30;35.11;101327.22;5094309;28;20035;-76
2022/08/04 01:38:13;;;;;;;6.57;3.83;;;;;;;34.11;36.02;101321.97;5113390;28;20102;-76
2022/08/04 01:40:41;;;;;;;10.05;4.35;;;;;;;33.86;36.54;101316.38;5094518;28;20125;-76
2022/08/04 01:43:09;;;;;;;4.60;3.83;;;;;;;34.10;35.86;101315.72;5094951;28;20051;-76
2022/08/04 01:45:36;;;;;;;6.35;4.03;;;;;;;33.76;36.18;101312.88;5094744;28;20356;-76
2022/08/04 01:48:03;;;;;;;7.00;3.97;;;;;;;34.30;35.28;101310.94;5094394;28;20365;-76
2022/08/04 01:50:33;;;;;;;5.03;3.67;;;;;;;33.86;36.16;101302.81;5113301;28;20023;-76
2022/08/04 01:52:59;;;;;;;6.68;3.50;;;;;;;34.02;36.13;101301.22;5094735;28;20031;-76
2022/08/04 01:55:27;;;;;;;4.88;3.22;;;;;;;34.04;36.19;101310.06;5094138;28;20023;-76
2022/08/04 01:57:55;;;;;;;4.07;3.10;;;;;;;33.41;37.05;101311.84;5094657;28;20050;-76
2022/08/04 02:00:26;;;;;;;6.32;4.18;;;;;;;32.74;38.69;101312.06;5094882;28;20311;-76
2022/08/04 02:02:53;;;;;;;5.47;3.53;;;;;;;32.69;38.55;101298.97;5112262;28;20031;-76
2022/08/04 02:05:21;;;;;;;6.82;4.15;;;;;;;32.78;38.25;101305.34;5094760;28;20049;-76
2022/08/04 02:07:54;;;;;;;6.35;4.45;;;;;;;33.16;37.63;101306.16;5094442;28;20058;-76
2022/08/04 02:10:47;;;;;;;6.57;3.50;;;;;;;33.30;36.98;101302.97;5094022;28;20027;-76
2022/08/04 02:13:24;;;;;;;8.48;4.50;;;;;;;33.13;37.05;101301.06;5094534;28;20027;-76
2022/08/04 02:16:03;;;;;;;5.80;4.18;;;;;;;33.61;36.51;101297.16;5093699;28;20028;-76
2022/08/04 02:18:48;;;;;;;8.15;3.72;;;;;;;33.60;36.25;101287.31;5094345;28;20068;-76
2022/08/04 02:21:18;;;;;;;6.53;3.80;;;;;;;33.68;36.32;101297.38;5094278;28;20030;-76
2022/08/04 02:23:49;;;;;;;7.70;3.80;;;;;;;33.91;35.78;101289.63;5111783;28;20028;-76
2022/08/04 02:26:20;;;;;;;9.63;3.90;;;;;;;33.82;35.95;101290.59;5094248;28;20483;-76
2022/08/04 02:28:54;;;;;;;6.32;3.47;;;;;;;34.09;35.36;101288.75;5112762;28;20027;-77
2022/08/04 02:31:29;;;;;;;5.07;3.63;;;;;;;33.90;35.37;101293.34;5093551;28;20031;-76
2022/08/04 02:34:15;;;;;;;7.28;3.40;;;;;;;33.83;35.87;101297.72;5094310;28;20024;-76
2022/08/04 02:36:42;;;;;;;4.75;3.30;;;;;;;33.67;36.06;101298.38;5092858;28;20031;-77
2022/08/04 02:39:10;;;;;;;6.38;3.60;;;;;;;33.73;36.03;101291.47;5112093;28;20035;-76
2022/08/04 02:41:36;;;;;;;5.20;3.30;;;;;;;33.70;36.00;101291.81;5094127;28;20395;-77
2022/08/04 02:44:05;;;;;;;9.13;3.30;;;;;;;33.79;35.60;101290.91;5093265;28;20044;-76
2022/08/04 02:46:32;;;;;;;4.78;3.22;;;;;;;33.90;35.83;101287.94;5094076;28;20105;-76
2022/08/04 02:49:01;;;;;;;6.28;3.63;;;;;;;34.01;35.63;101288.69;5112290;28;20079;-76
2022/08/04 02:51:41;;;;;;;4.15;3.20;;;;;;;33.67;36.26;101292.13;5092998;28;20027;-76
2022/08/04 02:54:07;;;;;;;8.75;3.80;;;;;;;33.81;35.77;101289.75;5094036;28;20030;-76
2022/08/04 02:56:35;;;;;;;5.47;3.42;;;;;;;33.95;35.55;101282.91;5112038;28;20534;-76
2022/08/04 02:59:04;;;;;;;4.65;2.67;;;;;;;33.84;36.08;101287.72;5093048;28;20039;-76
2022/08/04 03:01:31;;;;;;;8.25;3.00;;;;;;;33.80;35.65;101282.63;5111858;28;20034;-76
2022/08/04 03:04:30;;;;;;;5.80;3.33;;;;;;;33.63;36.27;101284.31;5093828;28;20026;-76
2022/08/04 03:07:20;;;;;;;7.35;3.72;;;;;;;33.72;36.43;101281.66;5093423;28;20118;-76
2022/08/04 03:10:09;;;;;;;4.85;3.15;;;;;;;33.64;36.40;101283.28;5111959;28;20023;-76
2022/08/04 03:12:54;;;;;;;7.57;3.25;;;;;;;33.44;36.59;101276.31;5093262;28;20039;-76
2022/08/04 03:15:41;;;;;;;5.07;3.35;;;;;;;33.87;35.60;101277.41;5093424;28;20051;-76
2022/08/04 03:18:44;;;;;;;5.55;3.03;;;;;;;33.80;35.85;101273.63;5094132;28;20023;-76
2022/08/04 03:21:25;;;;;;;7.35;3.10;;;;;;;33.50;36.24;101281.13;5093637;28;20019;-76
2022/08/04 03:24:05;;;;;;;6.07;2.90;;;;;;;33.71;36.04;101279.97;5093697;28;20066;-76
2022/08/04 03:27:01;;;;;;;8.02;3.88;;;;;;;33.76;35.84;101275.78;5092740;28;20032;-76
2022/08/04 03:29:58;;;;;;;7.28;3.25;;;;;;;33.70;35.87;101279.09;5093884;28;20039;-76
2022/08/04 03:32:54;;;;;;;6.55;3.35;;;;;;;33.89;35.92;101274.53;5093772;28;20050;-76
2022/08/04 03:35:50;;;;;;;10.13;3.22;;;;;;;33.63;36.14;101269.91;5112011;28;20028;-76
2022/08/04 03:38:40;;;;;;;11.88;2.90;;;;;;;33.75;36.08;101267.81;5111867;28;20028;-76
2022/08/04 03:41:14;;;;;;;9.85;3.55;;;;;;;33.88;35.89;101268.28;5111297;28;20027;-76
2022/08/04 03:44:20;;;;;;;6.75;3.13;;;;;;;33.63;36.19;101270.75;5093512;28;20055;-76
2022/08/04 03:46:45;;;;;;;10.50;3.40;;;;;;;33.72;35.97;101268.13;5095344;28;20024;-75
2022/08/04 03:49:48;;;;;;;6.72;3.10;;;;;;;33.56;36.42;101272.38;5115538;28;20030;-76
2022/08/04 03:55:28;;;;;;;4.93;2.90;;;;;;;33.63;36.11;101264.47;5115363;28;20062;-77
2022/08/04 03:58:38;;;;;;;8.25;3.28;;;;;;;33.48;36.72;101266.88;5115665;28;20099;-77
2022/08/04 04:01:23;;;;;;;7.68;3.38;;;;;;;33.47;36.79;101259.78;5096617;28;20047;-77
2022/08/04 04:04:10;;;;;;;7.50;2.95;;;;;;;33.80;35.95;101254.66;5056197;28;20031;-77
2022/08/04 04:06:57;;;;;;;6.70;3.58;;;;;;;33.37;37.07;101253.59;5097133;28;20032;-77
2022/08/04 04:09:46;;;;;;;5.57;3.67;;;;;;;33.42;36.62;101257.53;5114574;28;20020;-76
2022/08/04 04:12:25;;;;;;;6.40;3.50;;;;;;;33.51;36.86;101255.75;5096947;28;20023;-76
2022/08/04 04:15:19;;;;;;;5.88;3.47;;;;;;;33.27;36.84;101257.22;5097207;28;20035;-76
2022/08/04 04:17:57;;;;;;;5.95;2.97;;;;;;;33.40;36.45;101255.97;5096738;28;20020;-76
2022/08/04 04:20:44;;;;;;;7.15;3.33;;;;;;;33.30;37.14;101259.63;5096847;28;20059;-77
2022/08/04 04:23:29;;;;;;;9.27;3.08;;;;;;;33.41;36.86;101261.22;5096032;28;20024;-76
2022/08/04 04:26:21;;;;;;;8.60;3.72;;;;;;;33.51;36.67;101271.13;5096756;28;20031;-76
2022/08/04 04:29:14;;;;;;;7.57;3.00;;;;;;;33.48;36.50;101264.19;5115100;28;20050;-76
2022/08/04 04:31:56;;;;;;;5.32;3.03;;;;;;;33.45;36.70;101267.19;5114838;28;20023;-77
2022/08/04 04:34:56;;;;;;;6.55;3.45;;;;;;;33.28;37.02;101264.34;5096537;28;20479;-76
2022/08/04 04:37:24;;;;;;;7.38;3.45;;;;;;;33.48;36.76;101267.75;5114074;28;20424;-76
2022/08/04 04:40:27;;;;;;;8.93;3.33;;;;;;;33.04;37.51;101264.06;5096200;28;20031;-76
2022/08/04 04:43:48;;;;;;;8.25;3.40;;;;;;;32.80;37.85;101268.19;5096244;28;20030;-76
2022/08/04 04:46:36;;;;;;;10.85;3.38;;;;;;;32.45;38.81;101270.59;5063189;28;20430;-76
2022/08/04 04:49:11;;;;;;;7.10;3.40;;;;;;;32.36;38.56;101278.75;5114669;28;20034;-76
2022/08/04 04:51:46;;;;;;;9.40;3.40;;;;;;;32.32;38.66;101280.06;5095495;28;20034;-77
2022/08/04 04:54:36;;;;;;;4.75;2.97;;;;;;;32.63;38.33;101272.50;5095771;28;20033;-77
2022/08/04 04:57:16;;;;;;;4.60;2.65;;;;;;;32.60;38.30;101267.38;5095197;28;20023;-76
2022/08/04 04:59:55;;;;;;;6.60;2.45;;;;;;;33.13;36.95;101266.69;5096400;28;20066;-77
2022/08/04 05:02:56;;;;;;;4.95;3.05;;;;;;;33.28;36.53;101266.22;5114120;28;20221;-77
2022/08/04 05:05:44;;;;;;;6.47;3.10;;;;;;;33.40;36.86;101274.94;5095277;28;20024;-77
2022/08/04 05:08:40;;;;;;;5.72;3.38;;;;;;;32.58;38.24;101283.78;5095851;28;20124;-77
2022/08/04 05:11:08;;;;;;;4.72;2.47;;;;;;;31.84;39.19;101287.22;5113731;28;20034;-77
2022/08/04 05:13:49;;;;;;;5.38;2.38;;;;;;;32.44;38.36;101287.81;5113949;28;20034;-76
2022/08/04 05:16:24;;;;;;;2.63;2.25;;;;;;;31.88;39.11;101300.28;5113844;28;20046;-77
2022/08/04 05:19:07;;;;;;;8.00;2.40;;;;;;;32.19;38.80;101280.34;5095170;28;20148;-76
2022/08/04 05:21:48;;;;;;;4.75;2.28;;;;;;;33.26;37.12;101284.44;5095665;28;20023;-77
2022/08/04 05:24:17;;;;;;;7.50;2.13;;;;;;;32.48;38.41;101285.69;5095393;28;20027;-77
2022/08/04 05:26:47;;;;;;;6.28;1.70;;;;;;;32.23;38.77;101288.03;5094366;28;20020;-77
2022/08/04 05:29:24;;;;;;;4.78;2.17;;;;;;;32.67;37.92;101282.03;5095331;28;20032;-77
2022/08/04 05:31:53;;;;;;;4.30;2.05;;;;;;;32.86;37.70;101283.81;5095217;28;20063;-76
2022/08/04 05:34:25;;;;;;;5.82;2.38;;;;;;;33.23;37.05;101279.31;5112738;28;20030;-77
2022/08/04 05:36:59;;;;;;;8.18;2.30;;;;;;;32.57;38.27;101294.75;5113812;28;20030;-77
2022/08/04 05:39:27;;;;;;;6.80;2.08;;;;;;;32.45;38.31;101291.38;5112826;28;20020;-77
2022/08/04 05:41:55;;;;;;;5.63;1.92;;;;;;;32.33;39.22;101293.41;5095203;28;20020;-76
2022/08/04 05:44:22;;;;;;;5.45;2.20;;;;;;;31.87;39.66;101309.41;5094883;28;20047;-77
2022/08/04 05:46:51;;;;;;;6.60;2.38;;;;;;;32.36;39.22;101305.81;5094142;28;20028;-76
2022/08/04 05:49:18;;;;;;;5.10;2.25;;;;;;;32.36;39.01;101297.69;5095019;28;20024;-77
2022/08/04 05:51:46;;;;;;;5.03;2.15;;;;;;;33.07;37.77;101293.53;5113172;28;20023;-77
2022/08/04 05:54:13;;;;;;;4.85;1.73;;;;;;;32.84;37.71;101288.53;5112729;28;20024;-76
2022/08/04 05:56:39;;;;;;;4.28;2.22;;;;;;;33.29;37.09;101297.69;5094624;28;20019;-76
2022/08/04 05:59:05;;;;;;;7.97;2.25;;;;;;;31.99;40.24;101302.00;5095013;28;20054;-76
2022/08/04 06:01:32;;;;;;;9.40;2.53;;;;;;;32.76;38.73;101301.97;5093876;28;20106;-77
2022/08/04 06:04:00;;;;;;;8.82;2.25;;;;;;;32.08;39.56;101298.44;5094747;28;20020;-77
2022/08/04 06:06:26;;;;;;;4.75;2.28;;;;;;;32.54;38.88;101293.19;5094560;28;20065;-77
2022/08/04 06:08:53;;;;;;;8.05;2.05;;;;;;;33.21;37.78;101293.00;5093527;28;20032;-76
2022/08/04 06:11:20;;;;;;;9.95;2.47;;;;;;;33.13;37.79;101301.06;5094696;28;20114;-76
2022/08/04 06:13:57;;;;;;;3.83;2.10;;;;;;;32.09;39.83;101301.97;5094827;28;20015;-76
2022/08/04 06:16:25;;;;;;;4.50;1.95;;;;;;;32.87;38.45;101301.75;5093839;28;20521;-76
2022/08/04 06:18:56;;;;;;;9.85;2.20;;;;;;;32.07;40.15;101314.81;5112669;28;20632;-76
2022/08/04 06:21:26;;;;;;;5.55;2.10;;;;;;;32.97;38.53;101302.56;5094564;28;20395;-77
2022/08/04 06:23:53;;;;;;;7.82;2.40;;;;;;;33.88;36.88;101308.94;5093580;28;20035;-77
2022/08/04 06:26:20;;;;;;;7.78;2.20;;;;;;;32.97;38.21;101302.56;5094436;28;20033;-76
2022/08/04 06:28:50;;;;;;;7.30;1.80;;;;;;;33.50;37.61;101297.41;5093844;28;20077;-77
2022/08/04 06:31:31;;;;;;;8.88;2.05;;;;;;;33.20;37.89;101301.28;5094574;28;20031;-77
2022/08/04 06:34:07;;;;;;;20.20;3.15;;;;;;;33.64;37.47;101310.38;5094350;28;20068;-76
2022/08/04 06:36:36;;;;;;;9.95;2.53;;;;;;;33.36;37.81;101301.50;5093749;28;20015;-76
2022/08/04 06:39:04;;;;;;;4.43;2.35;;;;;;;32.12;40.41;101317.91;5094274;28;20020;-77
2022/08/04 06:41:30;;;;;;;7.05;2.13;;;;;;;32.43;39.45;101309.63;5094559;28;20023;-77
2022/08/04 06:44:02;;;;;;;5.07;1.77;;;;;;;32.90;39.07;101311.44;5090263;28;20121;-76
2022/08/04 06:46:29;;;;;;;6.13;2.08;;;;;;;33.53;38.14;101312.50;5090919;28;20490;-76
2022/08/04 06:48:56;;;;;;;5.95;1.85;;;;;;;32.98;38.44;101315.09;5090864;28;20122;-77
2022/08/04 06:51:23;;;;;;;3.33;1.60;;;;;;;31.89;40.93;101320.94;5090369;28;20027;-77
2022/08/04 06:53:49;;;;;;;4.30;1.70;;;;;;;32.21;40.94;101327.03;5091167;28;20020;-77
2022/08/04 06:56:17;;;;;;;3.72;1.70;;;;;;;33.80;36.95;101315.13;5090840;28;20019;-77
2022/08/04 06:58:45;;;;;;;3.63;1.75;;;;;;;34.66;35.74;101313.53;5090458;28;20020;-77
2022/08/04 07:01:13;;;;;;;7.97;1.60;;;;;;;34.47;35.46;101319.16;5092021;28;20121;-78
2022/08/04 07:03:39;;;;;;;11.63;1.90;;;;;;;36.42;33.13;101314.47;5090791;28;20023;-77
2022/08/04 07:06:05;;;;;;;2.53;1.60;;;;;;;34.94;34.43;101318.75;5090420;28;20511;-77
2022/08/04 07:08:31;;;;;;;5.05;1.60;;;;;;;35.71;33.98;101314.16;5090843;28;20040;-77
2022/08/04 07:10:56;;;;;;;5.55;1.38;;;;;;;35.50;33.09;101319.09;5090534;28;20217;-78
2022/08/04 07:13:22;;;;;;;3.67;1.30;;;;;;;34.70;34.31;101329.47;5090734;28;20023;-77
2022/08/04 07:15:48;;;;;;;3.15;1.40;;;;;;;36.07;32.00;101332.88;5090787;28;20544;-77
2022/08/04 07:18:15;;;;;;;5.53;1.27;;;;;;;36.83;30.34;101330.69;5091306;28;20028;-76
2022/08/04 07:20:44;;;;;;;5.85;1.50;;;;;;;36.67;31.03;101334.28;5091665;28;20118;-77
2022/08/04 07:23:16;;;;;;;4.43;1.40;;;;;;;37.11;29.83;101332.94;5096109;28;20046;-78
2022/08/04 07:25:42;;;;;;;4.75;1.45;;;;;;;37.69;29.80;101342.47;5095637;28;20039;-77
2022/08/04 07:28:07;;;;;;;6.10;1.42;;;;;;;36.24;31.43;101348.16;5094115;28;20032;-77
2022/08/04 07:30:34;;;;;;;8.85;2.10;;;;;;;36.50;31.54;101347.13;5094304;28;20173;-77
2022/08/04 07:33:00;;;;;;;4.97;1.45;;;;;;;36.31;32.28;101349.22;5095247;28;20094;-77
2022/08/04 07:35:27;;;;;;;3.20;0.93;;;;;;;36.67;30.71;101348.75;5095526;28;20057;-78
2022/08/04 07:37:53;;;;;;;5.10;1.50;;;;;;;38.72;29.53;101352.09;5094346;28;20453;-77
2022/08/04 07:40:19;;;;;;;2.92;1.48;;;;;;;38.24;28.33;101347.81;5093705;28;20138;-78
2022/08/04 07:42:44;;;;;;;3.00;1.30;;;;;;;37.23;29.76;101353.28;5096488;28;20430;-77
2022/08/04 07:45:10;;;;;;;3.90;1.38;;;;;;;36.78;30.96;101354.84;5097668;28;20042;-78
2022/08/04 07:47:36;;;;;;;3.42;1.33;;;;;;;36.59;30.64;101361.53;5096717;28;20399;-76
2022/08/04 07:50:02;;;;;;;5.93;1.20;;;;;;;36.56;30.50;101368.19;5097506;28;20027;-76
2022/08/04 07:52:29;;;;;;;3.10;1.40;;;;;;;38.26;28.50;101361.28;5097625;28;20051;-77
2022/08/04 07:54:55;;;;;;;4.18;1.75;;;;;;;39.00;27.14;101366.75;5096564;28;20088;-78
2022/08/04 07:57:20;;;;;;;5.13;1.40;;;;;;;38.56;27.13;101373.06;5097002;28;20110;-78
2022/08/04 07:59:47;;;;;;;8.27;1.15;;;;;;;41.06;25.11;101381.63;5097385;28;20441;-77
2022/08/04 08:02:14;;;;;;;9.98;2.03;;;;;;;41.20;24.13;101377.03;5096873;28;20019;-78
2022/08/04 08:04:40;;;;;;;5.07;1.23;;;;;;;39.13;26.60;101378.88;5097348;28;20028;-78
2022/08/04 08:07:06;;;;;;;14.70;1.88;;;;;;;38.66;27.31;101379.09;5095971;28;20471;-77
2022/08/04 08:09:33;;;;;;;8.63;1.92;;;;;;;38.41;27.44;101388.59;5097061;28;20051;-78
2022/08/04 08:11:58;;;;;;;7.03;1.42;;;;;;;37.59;28.31;101377.31;5097349;28;20020;-78
2022/08/04 08:14:24;;;;;;;3.15;1.13;;;;;;;38.06;27.85;101374.56;5114109;28;20031;-77
2022/08/04 08:16:50;;;;;;;2.50;1.00;;;;;;;36.79;29.32;101372.88;5115076;28;20034;-77
2022/08/04 08:19:15;;;;;;;5.63;1.20;;;;;;;38.43;27.78;101375.59;5115203;28;20027;-78
2022/08/04 08:21:45;;;;;;;4.47;1.40;;;;;;;38.04;27.61;101380.22;5096057;28;20030;-77
2022/08/04 08:24:11;;;;;;;2.95;1.33;;;;;;;39.05;26.13;101376.25;5096567;28;20076;-78
2022/08/04 08:26:36;;;;;;;6.20;1.55;;;;;;;39.00;26.18;101377.69;5096482;28;20019;-77
2022/08/04 08:29:03;;;;;;;4.65;1.27;;;;;;;39.79;25.70;101376.09;5096051;28;20023;-78
2022/08/04 08:31:28;;;;;;;4.50;1.30;;;;;;;40.61;24.12;101383.91;5096221;28;20118;-77
2022/08/04 08:33:54;;;;;;;3.13;1.13;;;;;;;38.68;25.81;101377.03;5114730;28;20107;-77
2022/08/04 08:36:31;;;;;;;3.85;1.20;;;;;;;39.78;24.72;101379.03;5095503;28;20015;-77
2022/08/04 08:39:32;;;;;;;3.47;1.63;;;;;;;38.64;25.42;101378.44;5096473;28;20044;-76
2022/08/04 08:42:29;;;;;;;2.25;1.20;;;;;;;37.00;26.75;101378.63;5114690;28;20144;-77
2022/08/04 08:45:15;;;;;;;4.88;1.30;;;;;;;36.20;27.19;101389.47;5041386;28;20061;-78
2022/08/04 08:47:50;;;;;;;5.57;1.65;;;;;;;36.88;28.19;101382.75;5096054;28;20036;-77
2022/08/04 08:50:15;;;;;;;1.52;1.00;;;;;;;36.60;27.69;101385.88;5095229;28;20172;-77
2022/08/04 08:52:53;;;;;;;3.22;1.23;;;;;;;37.37;26.36;101381.69;5096172;28;20126;-77
2022/08/04 08:55:56;;;;;;;2.45;1.15;;;;;;;36.74;27.04;101392.47;5096053;28;20022;-78
2022/08/04 08:58:52;;;;;;;3.47;1.45;;;;;;;37.29;26.32;101379.88;5113873;28;20034;-77
2022/08/04 09:01:48;;;;;;;2.15;1.00;;;;;;;38.27;26.19;101374.75;5114330;28;20023;-76
2022/08/04 09:04:31;;;;;;;3.42;1.17;;;;;;;38.02;26.17;101374.94;5095363;28;20032;-77
2022/08/04 09:07:28;;;;;;;3.72;1.30;;;;;;;37.89;26.16;101380.16;5096096;28;20031;-78
2022/08/04 09:10:10;;;;;;;6.05;1.25;;;;;;;36.73;27.20;101395.38;5095899;28;20483;-77
2022/08/04 09:12:56;;;;;;;5.97;1.38;;;;;;;37.95;26.30;101395.81;5095482;28;20047;-77
2022/08/04 09:15:25;;;;;;;3.97;1.00;;;;;;;35.49;29.36;101398.91;5114364;28;20054;-78
2022/08/04 09:18:13;;;;;;;2.67;1.20;;;;;;;36.65;27.71;101401.69;5095623;28;20028;-77
2022/08/04 09:20:49;;;;;;;2.25;1.02;;;;;;;37.17;26.59;101397.63;5074942;28;20031;-77
2022/08/04 09:23:33;;;;;;;2.17;1.20;;;;;;;37.25;27.48;101394.84;5095714;28;20154;-77
2022/08/04 09:26:05;;;;;;;2.40;1.27;;;;;;;37.24;27.10;101403.22;5094867;28;20114;-77
2022/08/04 09:28:41;;;;;;;2.72;1.17;;;;;;;36.59;27.24;101408.69;5114010;28;20121;-77
2022/08/04 09:31:11;;;;;;;4.38;1.00;;;;;;;36.10;27.75;101409.53;5095669;28;20089;-77
2022/08/04 09:33:36;;;;;;;3.25;1.25;;;;;;;36.55;27.17;101423.66;5095165;28;20185;-78
2022/08/04 09:36:09;;;;;;;1.90;0.80;;;;;;;36.32;26.54;101420.78;5095354;28;20542;-77
2022/08/04 09:38:45;;;;;;;3.35;0.90;;;;;;;36.61;26.51;101425.66;5094865;28;20176;-77
2022/08/04 09:41:15;;;;;;;2.63;0.93;;;;;;;36.98;25.88;101434.28;5095512;28;20046;-77
2022/08/04 09:44:05;;;;;;;3.70;1.38;;;;;;;37.51;26.15;101426.44;5112753;28;20066;-76
2022/08/04 09:46:55;;;;;;;3.15;1.30;;;;;;;36.64;27.01;101428.06;5094303;28;20047;-77
2022/08/04 09:49:49;;;;;;;4.28;1.33;;;;;;;36.86;26.68;101422.91;5113558;28;20031;-77
2022/08/04 09:52:55;;;;;;;2.03;0.90;;;;;;;37.25;26.27;101424.81;5095121;28;20023;-77
2022/08/04 09:55:38;;;;;;;1.85;1.00;;;;;;;36.91;26.88;101436.88;5095196;28;20023;-77
2022/08/04 09:58:13;;;;;;;2.65;1.40;;;;;;;37.25;26.58;101438.44;5113362;28;20019;-78
2022/08/04 10:00:45;;;;;;;4.55;1.08;;;;;;;35.61;28.29;101448.38;5094104;28;20050;-77
2022/08/04 10:03:13;;;;;;;2.72;1.20;;;;;;;36.25;28.31;101449.69;5094981;28;20073;-77
2022/08/04 10:06:06;;;;;;;4.22;1.10;;;;;;;35.82;27.43;101457.97;5094706;28;20387;-77
2022/08/04 10:08:43;;;;;;;1.42;0.93;;;;;;;36.61;27.31;101447.44;5094194;28;20030;-76
2022/08/04 10:11:15;;;;;;;6.45;1.27;;;;;;;35.75;27.54;101435.13;5094987;28;20027;-77
2022/08/04 10:14:04;;;;;;;1.02;0.80;;;;;;;36.94;27.35;101441.13;5094238;28;20399;-76
2022/08/04 10:16:55;;;;;;;1.35;0.80;;;;;;;37.48;26.14;101444.00;5094695;28;20026;-76
2022/08/04 10:19:31;;;;;;;1.77;0.93;;;;;;;36.40;27.10;101455.31;5113036;28;20055;-77
2022/08/04 10:22:35;;;;;;;4.63;1.00;;;;;;;36.45;26.64;101452.91;5093773;28;20391;-77
2022/08/04 10:25:19;;;;;;;1.95;0.90;;;;;;;37.64;25.47;101453.94;5094545;28;20027;-76
2022/08/04 10:27:47;;;;;;;2.35;1.33;;;;;;;37.01;26.76;101464.75;5112501;28;20567;-77
2022/08/04 10:30:17;;;;;;;3.28;1.00;;;;;;;36.96;25.96;101458.97;5094471;28;20055;-77
2022/08/04 10:32:59;;;;;;;7.57;1.10;;;;;;;37.17;26.19;101463.00;5094572;28;20055;-77
2022/08/04 10:35:27;;;;;;;2.42;1.00;;;;;;;37.21;25.54;101464.34;5093904;28;20024;-77
2022/08/04 10:38:12;;;;;;;4.55;0.82;;;;;;;37.18;26.27;101459.25;5094006;28;20416;-77
2022/08/04 10:40:46;;;;;;;2.28;1.05;;;;;;;35.96;27.70;101467.34;5094326;28;20030;-77
2022/08/04 10:43:32;;;;;;;1.70;0.90;;;;;;;37.57;26.21;101463.84;5111913;28;20047;-77
2022/08/04 10:46:20;;;;;;;1.95;0.98;;;;;;;36.58;26.26;101463.28;5093972;28;20069;-76
2022/08/04 10:48:56;;;;;;;2.42;0.93;;;;;;;36.74;25.98;101462.41;5112024;28;20081;-78
2022/08/04 10:51:45;;;;;;;3.55;1.05;;;;;;;37.78;26.22;101465.97;5094685;28;20084;-77
2022/08/04 10:54:16;;;;;;;1.88;0.90;;;;;;;37.87;24.85;101474.09;5094472;28;20028;-77
2022/08/04 10:57:05;;;;;;;2.63;1.10;;;;;;;37.17;25.84;101473.91;5115715;28;20077;-78
2022/08/04 10:59:42;;;;;;;4.78;1.35;;;;;;;39.44;25.10;101462.56;5098543;28;20027;-77
2022/08/04 11:02:33;;;;;;;4.53;1.00;;;;;;;38.49;23.79;101454.03;5116744;28;20024;-77
2022/08/04 11:05:09;;;;;;;1.55;1.13;;;;;;;38.94;23.80;101457.69;5058960;28;20032;-76
2022/08/04 11:07:38;;;;;;;1.63;0.95;;;;;;;38.95;23.59;101453.91;5116192;28;20043;-77
2022/08/04 11:10:05;;;;;;;3.28;1.17;;;;;;;39.61;23.76;101458.59;5097408;28;20024;-77
2022/08/04 11:12:33;;;;;;;1.88;1.02;;;;;;;38.85;24.03;101448.72;5116442;28;20051;-76
2022/08/04 11:15:08;;;;;;;1.63;1.10;;;;;;;38.90;22.99;101448.16;5097946;28;20114;-77
2022/08/04 11:17:59;;;;;;;1.30;1.02;;;;;;;38.71;22.95;101449.56;5097271;28;20083;-76
2022/08/04 11:20:41;;;;;;;8.37;1.00;;;;;;;36.04;26.49;101451.03;5097801;28;20038;-76
2022/08/04 11:23:10;;;;;;;2.50;1.10;;;;;;;36.99;24.97;101455.91;5097762;28;20016;-75
2022/08/04 11:25:43;;;;;;;3.45;1.15;;;;;;;38.22;24.54;101456.28;5096681;28;20418;-77
2022/08/04 11:28:27;;;;;;;3.85;1.15;;;;;;;37.66;24.65;101453.75;5097650;28;20027;-77
2022/08/04 11:31:01;;;;;;;3.30;1.60;;;;;;;37.67;24.97;101452.72;5097734;28;20031;-76
2022/08/04 11:33:43;;;;;;;2.05;0.93;;;;;;;36.30;25.49;101464.47;5097419;28;20510;-76
2022/08/04 11:36:27;;;;;;;2.28;1.20;;;;;;;37.12;25.04;101451.78;5097580;28;20034;-76
2022/08/04 11:39:14;;;;;;;2.80;1.25;;;;;;;36.83;24.94;101461.41;5114871;28;20026;-76
2022/08/04 11:41:48;;;;;;;2.92;1.15;;;;;;;38.79;23.42;101451.38;5097561;28;20104;-76
2022/08/04 11:44:30;;;;;;;2.72;0.85;;;;;;;39.29;23.10;101447.00;5097224;28;20127;-75
2022/08/04 11:46:59;;;;;;;;;;;;;;;37.59;24.40;101456.38;5096742;28;20035;-76
2022/08/04 11:49:40;;;;;;;2.50;1.25;;;;;;;38.97;22.87;101454.56;5097407;28;19918;-76
2022/08/04 11:52:07;;;;;;;1.95;0.80;;;;;;;40.03;22.65;101459.63;5114811;28;20076;-77
2022/08/04 11:54:34;;;;;;;2.33;0.90;;;;;;;38.64;23.14;101460.34;5097031;28;20793;-76
2022/08/04 11:56:59;;;;;;;2.33;1.02;;;;;;;38.83;24.00;101458.16;5097211;28;20020;-76
2022/08/04 11:59:26;;;;;;;3.15;1.20;;;;;;;38.78;23.17;101461.44;5096140;28;20053;-76
2022/08/04 12:01:55;;;;;;;1.98;1.20;;;;;;;38.45;24.80;101461.72;5097181;28;20490;-77
2022/08/04 12:04:36;;;;;;;2.13;0.90;;;;;;;39.18;22.57;101461.19;5097256;28;20392;-77
2022/08/04 12:07:13;;;;;;;2.23;1.13;;;;;;;39.74;22.90;101459.78;5095589;28;20031;-76
2022/08/04 12:10:12;;;;;;;3.20;1.00;;;;;;;38.07;24.05;101466.28;5097084;28;20024;-77